Nearby METAR Reports

 

EGPN - Dundee/Riverside, United Kingdom
Distance from station: SSE 10km
Updated: 25/02/2021 15:50
NOT Current
Few Clouds
Few Clouds
 Wind from W
Wind: W 20 mph , 31 km/h
Temperature: 8°C
Wind Chill: 3°C
Dew Point: 4°C
Humidity: 76%
Barometer: 1021 hPa
Clouds: Few Clouds
Visibility: 6 miles , 10 km
Cloud details: Few Clouds 610 m
2021/02/25 15:50 EGPN 251550Z 26017KT 9999 FEW020 08/04 Q1021
EGQL - Leuchars Raf, United Kingdom
Distance from station: SE 21km
Updated: 26/02/2021 06:50
Few Clouds
Few Clouds
 Wind from W
Wind: W 15 mph , 24 km/h
Temperature: 4°C
Wind Chill: -1°C
Dew Point: 3°C
Humidity: 93%
Barometer: 1030 hPa
Clouds: Few Clouds
Visibility: 6 miles , 10 km
Cloud details: Few Clouds 1219 m
2021/02/26 06:50 EGQL 260650Z 26013KT 9999 FEW040 04/03 Q1030 BLU
 
EGPH - Edinburgh Airpor, United Kingdom
Distance from station: SSW 67km
Updated: 26/02/2021 06:50
Few Clouds
Few Clouds
 Wind from SW
Wind: SW 7 mph , 11 km/h
Temperature: 2°C
Wind Chill: -1°C
Dew Point: 1°C
Humidity: 93%
Clouds: Few Clouds
Visibility: 6 miles , 10 km
Cloud details: Few Clouds 549 m
2021/02/26 06:50 EGPH 260650Z 23006KT 9999 FEW018 02/01
EGPD - Aberdeen/Dyce, United Kingdom
Distance from station: NE 91km
Updated: 26/02/2021 06:20
Clear
Clear
 Wind from SSW
Wind: SSW 5 mph , 7 km/h
Temperature: 3°C
Wind Chill: 1°C
Dew Point: 0°C
Humidity: 81%
Barometer: 1029 hPa
Clouds: Clear
Visibility: 6 miles , 10 km
2021/02/26 06:20 EGPD 260620Z AUTO 21004KT 170V230 9999 NCD 03/00 Q1029
 
EGPF - Glasgow Airport, United Kingdom
Distance from station: SW 111km
Updated: 26/02/2021 06:50
Few Clouds
Few Clouds
 Wind from varies
Wind: varies 3 mph , 6 km/h
Temperature: 2°C
Dew Point: 1°C
Humidity: 93%
Clouds: Few Clouds
Visibility: 6 miles , 10 km
Cloud details: Few Clouds 1097 m
2021/02/26 06:50 EGPF 260650Z AUTO VRB03KT 9999 FEW036 02/01 Q10
EGPE - Inverness/Dalcro, United Kingdom
Distance from station: NNW 124km
Updated: 26/02/2021 06:50
Few Clouds
Few Clouds
 Wind from SW
Wind: SW 14 mph , 22 km/h
Temperature: 7°C
Wind Chill: 4°C
Dew Point: 3°C
Humidity: 76%
Barometer: 1028 hPa
Clouds: Few Clouds
Visibility: 6 miles , 10 km
Cloud details: Few Clouds 732 m
2021/02/26 06:50 EGPE 260650Z 22012KT 9999 FEW024 07/03 Q1028
 
EGQK - Kinloss Raf, United Kingdom
Distance from station: NNW 128km
Updated: 26/02/2021 05:50
Mostly cloudy
Mostly cloudy
 Wind from SW
Wind: SW 9 mph , 15 km/h
Temperature: 7°C
Wind Chill: 4°C
Dew Point: 3°C
Humidity: 76%
Barometer: 1028 hPa
Clouds: Mostly cloudy
Visibility: 6 miles , 10 km
Cloud details: Mostly cloudy 3353 m
2021/02/26 05:50 EGQK 260550Z AUTO 22008KT 9999 BKN110/// 07/03 Q1028
EGQS - Lossiemouth Raf, United Kingdom
Distance from station: N 133km
Updated: 26/02/2021 05:50
Clear
Clear
 Wind from SW
Wind: SW 10 mph , 17 km/h
Temperature: 6°C
Wind Chill: 3°C
Dew Point: 2°C
Humidity: 76%
Barometer: 1028 hPa
Summary: Clear
Visibility: greater than 7 miles , 10 km
2021/02/26 05:50 EGQS 260550Z 23009KT CAVOK 06/02 Q1028 RMK BLU
 
EGPK - Prestwick(Civ/Na, United Kingdom
Distance from station: SW 148km
Updated: 26/02/2021 06:50
Few Clouds
Few Clouds
 Wind from E
Wind: E 7 mph , 11 km/h
Temperature: 2°C
Wind Chill: -1°C
Dew Point: 0°C
Humidity: 87%
Clouds: Few Clouds
Visibility: 6 miles , 10 km
Cloud details: Few Clouds 457 m
2021/02/26 06:50 EGPK 260650Z 10006KT 9999 FEW015 02/00
EGQA - Tain Range (saws, United Kingdom
Distance from station: NNW 154km
Updated: 25/02/2021 13:50
NOT Current
Partly cloudy
Partly cloudy
 Wind from WSW
Wind: WSW 21 mph , 33 km/h
Clouds: Partly cloudy
Visibility: 6 miles , 10 km
Cloud details: Few Clouds 732 m
Partly cloudy 91 m
2021/02/25 13:50 EGQA 251350Z 24018KT 9999 FEW024 SCT003 12/// Q1016 RMK BLU
 
EGQM - Boulmer, United Kingdom
Distance from station: SE 154km
Updated: 26/02/2021 06:50
Clear
Clear
 Wind from varies
Wind: varies 0 mph , 0 km/h
Temperature: 2°C
Dew Point: 0°C
Humidity: 87%
Barometer: 1032 hPa
Clouds: Clear
Visibility: 6 miles , 10 km
2021/02/26 06:50 EGQM 260650Z AUTO /////KT 9999 NCD 02/00 Q1032